Big Indian, New York
Current Conditions -  °F | °C
As of 4:15 PM on Tuesday 27 Jan 2015 (Local Time) from KMSV Reporting Station
Scattered Clouds Scattered Clouds  
Wind Chill:   Ceiling: Unl
Heat Index: 19°   Visibility: 10mi
Dew Point: 12°   Wind: 14mph
Humidity: 74%   Direction: 320°NW
Pressure: 29.67"   Gusts: 21mph
Location:  42.1°N, 74.44°W
Report Text: KMSV 272115Z AUTO 32012G18KT 10SM SCT023 M07/M11 A2967 RMK AO1
Loading
Personal Weather Stations






























Interactive Weather Map New forecast layout! Learn more

10-Day Weather Forecast

Advertisements
Track Severe Weather on mobile